sensor_id;sensor_type;location;lat;lon;timestamp;P1;durP1;ratioP1;P2;durP2;ratioP2
72319;SDS011;60269;52.502;16.732;2022-08-23T00:04:25;9.52;;;4.30;;
72319;SDS011;60269;52.502;16.732;2022-08-23T00:08:06;14.10;;;4.45;;
72319;SDS011;60269;52.502;16.732;2022-08-23T00:12:07;10.40;;;4.00;;
72319;SDS011;60269;52.502;16.732;2022-08-23T00:15:54;11.18;;;4.60;;
72319;SDS011;60269;52.502;16.732;2022-08-23T00:19:47;11.10;;;4.78;;
72319;SDS011;60269;52.502;16.732;2022-08-23T00:23:25;12.07;;;4.55;;
72319;SDS011;60269;52.502;16.732;2022-08-23T00:27:24;10.20;;;4.30;;
72319;SDS011;60269;52.502;16.732;2022-08-23T00:31:24;12.50;;;4.38;;
72319;SDS011;60269;52.502;16.732;2022-08-23T00:35:03;9.77;;;4.00;;
72319;SDS011;60269;52.502;16.732;2022-08-23T00:39:11;8.85;;;4.30;;
72319;SDS011;60269;52.502;16.732;2022-08-23T00:42:50;9.25;;;4.68;;
72319;SDS011;60269;52.502;16.732;2022-08-23T00:47:05;12.07;;;4.83;;
72319;SDS011;60269;52.502;16.732;2022-08-23T00:51:06;11.18;;;4.10;;
72319;SDS011;60269;52.502;16.732;2022-08-23T00:55:11;10.73;;;4.55;;
72319;SDS011;60269;52.502;16.732;2022-08-23T00:59:10;12.18;;;4.40;;
72319;SDS011;60269;52.502;16.732;2022-08-23T01:02:48;9.37;;;4.57;;
72319;SDS011;60269;52.502;16.732;2022-08-23T01:06:58;9.68;;;4.57;;
72319;SDS011;60269;52.502;16.732;2022-08-23T01:10:42;10.35;;;4.20;;
72319;SDS011;60269;52.502;16.732;2022-08-23T01:14:46;10.15;;;4.28;;
72319;SDS011;60269;52.502;16.732;2022-08-23T01:18:37;13.93;;;4.77;;
72319;SDS011;60269;52.502;16.732;2022-08-23T01:26:41;12.27;;;4.43;;
72319;SDS011;60269;52.502;16.732;2022-08-23T01:30:33;12.57;;;4.80;;
72319;SDS011;60269;52.502;16.732;2022-08-23T01:34:12;10.27;;;4.20;;
72319;SDS011;60269;52.502;16.732;2022-08-23T01:38:05;12.37;;;4.30;;
72319;SDS011;60269;52.502;16.732;2022-08-23T01:41:51;10.23;;;4.53;;
72319;SDS011;60269;52.502;16.732;2022-08-23T01:45:36;10.43;;;4.15;;
72319;SDS011;60269;52.502;16.732;2022-08-23T01:49:21;11.30;;;4.53;;
72319;SDS011;60269;52.502;16.732;2022-08-23T01:53:20;9.97;;;4.27;;
72319;SDS011;60269;52.502;16.732;2022-08-23T01:57:19;9.50;;;4.23;;
72319;SDS011;60269;52.502;16.732;2022-08-23T02:00:58;10.43;;;4.50;;
72319;SDS011;60269;52.502;16.732;2022-08-23T02:04:57;9.15;;;3.97;;
72319;SDS011;60269;52.502;16.732;2022-08-23T02:08:36;8.40;;;4.18;;
72319;SDS011;60269;52.502;16.732;2022-08-23T02:13:01;8.97;;;4.03;;
72319;SDS011;60269;52.502;16.732;2022-08-23T02:16:41;12.20;;;3.73;;
72319;SDS011;60269;52.502;16.732;2022-08-23T02:20:49;9.50;;;4.10;;
72319;SDS011;60269;52.502;16.732;2022-08-23T02:24:49;8.90;;;4.05;;
72319;SDS011;60269;52.502;16.732;2022-08-23T02:28:27;10.07;;;4.15;;
72319;SDS011;60269;52.502;16.732;2022-08-23T02:32:26;10.80;;;4.00;;
72319;SDS011;60269;52.502;16.732;2022-08-23T02:36:25;10.73;;;3.88;;
72319;SDS011;60269;52.502;16.732;2022-08-23T02:40:25;9.30;;;3.90;;
72319;SDS011;60269;52.502;16.732;2022-08-23T02:44:04;11.45;;;4.05;;
72319;SDS011;60269;52.502;16.732;2022-08-23T02:48:03;10.07;;;4.13;;
72319;SDS011;60269;52.502;16.732;2022-08-23T02:51:41;10.85;;;3.80;;
72319;SDS011;60269;52.502;16.732;2022-08-23T02:55:34;9.48;;;4.05;;
72319;SDS011;60269;52.502;16.732;2022-08-23T02:59:12;10.45;;;4.45;;
72319;SDS011;60269;52.502;16.732;2022-08-23T03:03:11;14.70;;;4.27;;
72319;SDS011;60269;52.502;16.732;2022-08-23T03:07:10;12.60;;;4.53;;
72319;SDS011;60269;52.502;16.732;2022-08-23T03:10:55;15.52;;;5.20;;
72319;SDS011;60269;52.502;16.732;2022-08-23T03:14:47;13.57;;;4.53;;
72319;SDS011;60269;52.502;16.732;2022-08-23T03:18:29;13.98;;;5.20;;
72319;SDS011;60269;52.502;16.732;2022-08-23T03:22:21;12.23;;;5.23;;
72319;SDS011;60269;52.502;16.732;2022-08-23T03:26:07;10.57;;;5.30;;
72319;SDS011;60269;52.502;16.732;2022-08-23T03:29:53;14.98;;;5.93;;
72319;SDS011;60269;52.502;16.732;2022-08-23T03:33:39;12.60;;;5.73;;
72319;SDS011;60269;52.502;16.732;2022-08-23T03:37:31;10.37;;;5.07;;
72319;SDS011;60269;52.502;16.732;2022-08-23T03:41:09;16.35;;;5.30;;
72319;SDS011;60269;52.502;16.732;2022-08-23T03:45:02;12.93;;;5.15;;
72319;SDS011;60269;52.502;16.732;2022-08-23T03:48:41;9.95;;;5.10;;
72319;SDS011;60269;52.502;16.732;2022-08-23T03:52:33;13.97;;;5.30;;
72319;SDS011;60269;52.502;16.732;2022-08-23T03:56:32;18.02;;;4.82;;
72319;SDS011;60269;52.502;16.732;2022-08-23T04:00:26;12.90;;;5.70;;
72319;SDS011;60269;52.502;16.732;2022-08-23T04:04:04;11.57;;;5.43;;
72319;SDS011;60269;52.502;16.732;2022-08-23T04:08:07;9.87;;;5.23;;
72319;SDS011;60269;52.502;16.732;2022-08-23T04:12:04;12.85;;;5.03;;
72319;SDS011;60269;52.502;16.732;2022-08-23T04:16:01;14.93;;;5.72;;
72319;SDS011;60269;52.502;16.732;2022-08-23T04:19:44;15.25;;;5.85;;
72319;SDS011;60269;52.502;16.732;2022-08-23T04:23:44;12.53;;;6.03;;
72319;SDS011;60269;52.502;16.732;2022-08-23T04:27:43;11.75;;;5.45;;
72319;SDS011;60269;52.502;16.732;2022-08-23T04:31:21;14.82;;;6.32;;
72319;SDS011;60269;52.502;16.732;2022-08-23T04:35:25;11.05;;;5.32;;
72319;SDS011;60269;52.502;16.732;2022-08-23T04:39:24;12.33;;;5.80;;
72319;SDS011;60269;52.502;16.732;2022-08-23T04:43:43;10.43;;;5.25;;
72319;SDS011;60269;52.502;16.732;2022-08-23T04:47:21;13.73;;;5.97;;
72319;SDS011;60269;52.502;16.732;2022-08-23T04:51:20;13.23;;;5.50;;
72319;SDS011;60269;52.502;16.732;2022-08-23T04:55:19;14.00;;;6.20;;
72319;SDS011;60269;52.502;16.732;2022-08-23T04:58:57;14.25;;;6.78;;
72319;SDS011;60269;52.502;16.732;2022-08-23T05:02:50;15.32;;;6.88;;
72319;SDS011;60269;52.502;16.732;2022-08-23T05:06:30;12.85;;;6.25;;
72319;SDS011;60269;52.502;16.732;2022-08-23T05:10:22;14.13;;;6.63;;
72319;SDS011;60269;52.502;16.732;2022-08-23T05:14:07;14.43;;;6.93;;
72319;SDS011;60269;52.502;16.732;2022-08-23T05:17:52;14.02;;;6.30;;
72319;SDS011;60269;52.502;16.732;2022-08-23T05:21:37;13.95;;;6.63;;
72319;SDS011;60269;52.502;16.732;2022-08-23T05:25:33;11.37;;;6.13;;
72319;SDS011;60269;52.502;16.732;2022-08-23T05:29:33;12.30;;;6.33;;
72319;SDS011;60269;52.502;16.732;2022-08-23T05:33:18;15.68;;;7.22;;
72319;SDS011;60269;52.502;16.732;2022-08-23T05:37:03;15.40;;;6.53;;
72319;SDS011;60269;52.502;16.732;2022-08-23T05:41:02;17.38;;;7.68;;
72319;SDS011;60269;52.502;16.732;2022-08-23T05:45:01;14.67;;;6.50;;
72319;SDS011;60269;52.502;16.732;2022-08-23T05:48:40;12.82;;;6.65;;
72319;SDS011;60269;52.502;16.732;2022-08-23T05:52:41;12.55;;;6.65;;
72319;SDS011;60269;52.502;16.732;2022-08-23T05:56:22;16.95;;;7.32;;
72319;SDS011;60269;52.502;16.732;2022-08-23T06:00:19;15.33;;;6.43;;
72319;SDS011;60269;52.502;16.732;2022-08-23T06:04:11;11.17;;;6.00;;
72319;SDS011;60269;52.502;16.732;2022-08-23T06:08:10;12.90;;;6.25;;
72319;SDS011;60269;52.502;16.732;2022-08-23T06:12:09;12.73;;;6.70;;
72319;SDS011;60269;52.502;16.732;2022-08-23T06:15:48;13.90;;;6.88;;
72319;SDS011;60269;52.502;16.732;2022-08-23T06:19:59;10.47;;;6.20;;
72319;SDS011;60269;52.502;16.732;2022-08-23T06:23:59;13.50;;;6.32;;
72319;SDS011;60269;52.502;16.732;2022-08-23T06:27:58;10.55;;;5.82;;
72319;SDS011;60269;52.502;16.732;2022-08-23T06:31:41;11.75;;;6.25;;
72319;SDS011;60269;52.502;16.732;2022-08-23T06:35:41;12.23;;;5.80;;
72319;SDS011;60269;52.502;16.732;2022-08-23T06:39:20;11.13;;;5.55;;
72319;SDS011;60269;52.502;16.732;2022-08-23T06:43:14;10.45;;;5.97;;
72319;SDS011;60269;52.502;16.732;2022-08-23T06:47:00;12.27;;;5.80;;
72319;SDS011;60269;52.502;16.732;2022-08-23T06:50:46;9.73;;;5.57;;
72319;SDS011;60269;52.502;16.732;2022-08-23T06:54:32;13.23;;;5.82;;
72319;SDS011;60269;52.502;16.732;2022-08-23T06:58:25;10.13;;;5.30;;
72319;SDS011;60269;52.502;16.732;2022-08-23T07:02:05;9.82;;;5.32;;
72319;SDS011;60269;52.502;16.732;2022-08-23T07:05:59;12.70;;;6.20;;
72319;SDS011;60269;52.502;16.732;2022-08-23T07:09:45;11.97;;;6.20;;
72319;SDS011;60269;52.502;16.732;2022-08-23T07:13:30;11.07;;;5.22;;
72319;SDS011;60269;52.502;16.732;2022-08-23T07:17:15;10.48;;;5.35;;
72319;SDS011;60269;52.502;16.732;2022-08-23T07:21:07;10.50;;;5.53;;
72319;SDS011;60269;52.502;16.732;2022-08-23T07:24:45;9.43;;;4.77;;
72319;SDS011;60269;52.502;16.732;2022-08-23T07:28:39;10.07;;;5.60;;
72319;SDS011;60269;52.502;16.732;2022-08-23T07:32:25;10.90;;;5.38;;
72319;SDS011;60269;52.502;16.732;2022-08-23T07:36:15;11.15;;;5.72;;
72319;SDS011;60269;52.502;16.732;2022-08-23T07:40:02;9.43;;;5.80;;
72319;SDS011;60269;52.502;16.732;2022-08-23T07:43:58;13.43;;;6.27;;
72319;SDS011;60269;52.502;16.732;2022-08-23T07:47:39;12.10;;;6.25;;
72319;SDS011;60269;52.502;16.732;2022-08-23T07:51:23;10.43;;;5.95;;
72319;SDS011;60269;52.502;16.732;2022-08-23T07:55:17;9.82;;;5.45;;
72319;SDS011;60269;52.502;16.732;2022-08-23T07:59:03;11.37;;;6.40;;
72319;SDS011;60269;52.502;16.732;2022-08-23T08:02:51;11.40;;;5.80;;
72319;SDS011;60269;52.502;16.732;2022-08-23T08:06:40;11.98;;;6.10;;
72319;SDS011;60269;52.502;16.732;2022-08-23T08:10:55;11.00;;;6.63;;
72319;SDS011;60269;52.502;16.732;2022-08-23T08:14:33;9.40;;;5.93;;
72319;SDS011;60269;52.502;16.732;2022-08-23T08:18:25;10.67;;;6.70;;
72319;SDS011;60269;52.502;16.732;2022-08-23T08:22:10;10.02;;;6.60;;
72319;SDS011;60269;52.502;16.732;2022-08-23T08:26:04;12.38;;;6.75;;
72319;SDS011;60269;52.502;16.732;2022-08-23T08:29:44;13.50;;;6.78;;
72319;SDS011;60269;52.502;16.732;2022-08-23T08:33:36;10.10;;;5.53;;
72319;SDS011;60269;52.502;16.732;2022-08-23T08:37:21;12.85;;;6.43;;
72319;SDS011;60269;52.502;16.732;2022-08-23T08:41:12;11.10;;;7.05;;
72319;SDS011;60269;52.502;16.732;2022-08-23T08:45:44;13.57;;;6.43;;
72319;SDS011;60269;52.502;16.732;2022-08-23T08:49:34;10.37;;;6.43;;
72319;SDS011;60269;52.502;16.732;2022-08-23T08:57:22;11.25;;;5.85;;
72319;SDS011;60269;52.502;16.732;2022-08-23T09:01:08;10.95;;;6.45;;
72319;SDS011;60269;52.502;16.732;2022-08-23T09:05:01;15.07;;;6.32;;
72319;SDS011;60269;52.502;16.732;2022-08-23T09:17:52;10.35;;;6.22;;
72319;SDS011;60269;52.502;16.732;2022-08-23T09:21:57;13.32;;;5.22;;
72319;SDS011;60269;52.502;16.732;2022-08-23T09:25:38;12.55;;;5.60;;
72319;SDS011;60269;52.502;16.732;2022-08-23T09:29:32;12.60;;;6.10;;
72319;SDS011;60269;52.502;16.732;2022-08-23T09:33:14;12.23;;;6.53;;
72319;SDS011;60269;52.502;16.732;2022-08-23T09:41:59;17.00;;;6.90;;
72319;SDS011;60269;52.502;16.732;2022-08-23T09:45:59;13.83;;;7.60;;
72319;SDS011;60269;52.502;16.732;2022-08-23T09:49:39;14.65;;;6.65;;
72319;SDS011;60269;52.502;16.732;2022-08-23T09:53:38;13.20;;;6.55;;
72319;SDS011;60269;52.502;16.732;2022-08-23T09:57:21;18.05;;;7.88;;
72319;SDS011;60269;52.502;16.732;2022-08-23T10:01:21;16.02;;;8.23;;
72319;SDS011;60269;52.502;16.732;2022-08-23T10:05:18;13.10;;;7.80;;
72319;SDS011;60269;52.502;16.732;2022-08-23T10:09:35;13.95;;;7.57;;
72319;SDS011;60269;52.502;16.732;2022-08-23T10:13:13;14.50;;;8.43;;
72319;SDS011;60269;52.502;16.732;2022-08-23T10:25:17;13.25;;;7.80;;
72319;SDS011;60269;52.502;16.732;2022-08-23T10:29:22;15.48;;;7.40;;
72319;SDS011;60269;52.502;16.732;2022-08-23T10:37:45;12.37;;;6.83;;
72319;SDS011;60269;52.502;16.732;2022-08-23T10:45:36;13.85;;;6.38;;
72319;SDS011;60269;52.502;16.732;2022-08-23T10:49:17;11.00;;;6.45;;
72319;SDS011;60269;52.502;16.732;2022-08-23T10:53:19;13.38;;;6.65;;
72319;SDS011;60269;52.502;16.732;2022-08-23T10:57:20;13.23;;;7.00;;
72319;SDS011;60269;52.502;16.732;2022-08-23T11:01:08;15.98;;;6.97;;
72319;SDS011;60269;52.502;16.732;2022-08-23T11:05:27;12.82;;;6.82;;
72319;SDS011;60269;52.502;16.732;2022-08-23T11:13:04;10.83;;;5.70;;
72319;SDS011;60269;52.502;16.732;2022-08-23T11:16:59;13.27;;;6.43;;
72319;SDS011;60269;52.502;16.732;2022-08-23T11:21:11;14.65;;;6.15;;
72319;SDS011;60269;52.502;16.732;2022-08-23T11:32:48;14.40;;;6.82;;
72319;SDS011;60269;52.502;16.732;2022-08-23T11:53:34;14.90;;;8.23;;
72319;SDS011;60269;52.502;16.732;2022-08-23T12:01:41;13.10;;;7.10;;
72319;SDS011;60269;52.502;16.732;2022-08-23T12:06:03;12.15;;;6.85;;
72319;SDS011;60269;52.502;16.732;2022-08-23T12:10:03;11.77;;;7.13;;
72319;SDS011;60269;52.502;16.732;2022-08-23T12:17:53;13.13;;;7.37;;
72319;SDS011;60269;52.502;16.732;2022-08-23T12:25:36;13.50;;;6.75;;
72319;SDS011;60269;52.502;16.732;2022-08-23T12:37:39;16.37;;;7.33;;
72319;SDS011;60269;52.502;16.732;2022-08-23T12:42:10;17.47;;;7.07;;
72319;SDS011;60269;52.502;16.732;2022-08-23T12:45:59;15.80;;;7.68;;
72319;SDS011;60269;52.502;16.732;2022-08-23T12:49:53;14.30;;;7.47;;
72319;SDS011;60269;52.502;16.732;2022-08-23T12:53:41;15.07;;;7.70;;
72319;SDS011;60269;52.502;16.732;2022-08-23T12:57:35;14.53;;;8.10;;
72319;SDS011;60269;52.502;16.732;2022-08-23T13:01:24;12.13;;;7.47;;
72319;SDS011;60269;52.502;16.732;2022-08-23T13:05:14;16.52;;;8.15;;
72319;SDS011;60269;52.502;16.732;2022-08-23T13:09:27;15.40;;;7.38;;
72319;SDS011;60269;52.502;16.732;2022-08-23T13:13:32;17.92;;;7.97;;
72319;SDS011;60269;52.502;16.732;2022-08-23T13:25:23;14.55;;;7.80;;
72319;SDS011;60269;52.502;16.732;2022-08-23T13:29:24;13.45;;;7.38;;
72319;SDS011;60269;52.502;16.732;2022-08-23T13:33:23;16.87;;;8.40;;
72319;SDS011;60269;52.502;16.732;2022-08-23T13:37:04;17.37;;;8.13;;
72319;SDS011;60269;52.502;16.732;2022-08-23T13:41:08;15.13;;;7.78;;
72319;SDS011;60269;52.502;16.732;2022-08-23T13:44:51;16.38;;;8.07;;
72319;SDS011;60269;52.502;16.732;2022-08-23T13:48:53;16.25;;;7.70;;
72319;SDS011;60269;52.502;16.732;2022-08-23T13:52:35;15.67;;;8.00;;
72319;SDS011;60269;52.502;16.732;2022-08-23T13:56:55;14.38;;;8.60;;
72319;SDS011;60269;52.502;16.732;2022-08-23T14:00:37;19.65;;;9.15;;
72319;SDS011;60269;52.502;16.732;2022-08-23T14:04:44;14.65;;;8.38;;
72319;SDS011;60269;52.502;16.732;2022-08-23T14:08:43;17.67;;;8.20;;
72319;SDS011;60269;52.502;16.732;2022-08-23T14:12:42;17.52;;;8.15;;
72319;SDS011;60269;52.502;16.732;2022-08-23T14:16:30;15.73;;;8.30;;
72319;SDS011;60269;52.502;16.732;2022-08-23T14:20:31;16.55;;;8.40;;
72319;SDS011;60269;52.502;16.732;2022-08-23T14:24:30;15.97;;;8.30;;
72319;SDS011;60269;52.502;16.732;2022-08-23T14:28:08;16.63;;;8.75;;
72319;SDS011;60269;52.502;16.732;2022-08-23T14:32:00;13.88;;;7.60;;
72319;SDS011;60269;52.502;16.732;2022-08-23T14:35:46;19.80;;;8.55;;
72319;SDS011;60269;52.502;16.732;2022-08-23T14:39:39;14.83;;;8.37;;
72319;SDS011;60269;52.502;16.732;2022-08-23T14:43:25;13.20;;;7.75;;
72319;SDS011;60269;52.502;16.732;2022-08-23T14:47:13;14.93;;;9.05;;
72319;SDS011;60269;52.502;16.732;2022-08-23T14:50:59;12.68;;;7.97;;
72319;SDS011;60269;52.502;16.732;2022-08-23T14:54:50;14.40;;;9.17;;
72319;SDS011;60269;52.502;16.732;2022-08-23T14:58:35;18.48;;;7.82;;
72319;SDS011;60269;52.502;16.732;2022-08-23T15:02:27;14.82;;;7.82;;
72319;SDS011;60269;52.502;16.732;2022-08-23T15:06:13;13.37;;;8.27;;
72319;SDS011;60269;52.502;16.732;2022-08-23T15:09:59;19.80;;;8.30;;
72319;SDS011;60269;52.502;16.732;2022-08-23T15:13:45;14.18;;;8.32;;
72319;SDS011;60269;52.502;16.732;2022-08-23T15:17:42;17.10;;;8.65;;
72319;SDS011;60269;52.502;16.732;2022-08-23T15:21:38;18.30;;;8.98;;
72319;SDS011;60269;52.502;16.732;2022-08-23T15:25:30;16.57;;;7.83;;
72319;SDS011;60269;52.502;16.732;2022-08-23T15:29:10;16.17;;;7.68;;
72319;SDS011;60269;52.502;16.732;2022-08-23T15:33:08;17.17;;;8.07;;
72319;SDS011;60269;52.502;16.732;2022-08-23T15:37:14;17.52;;;8.43;;
72319;SDS011;60269;52.502;16.732;2022-08-23T15:40:58;17.77;;;7.80;;
72319;SDS011;60269;52.502;16.732;2022-08-23T15:44:57;16.38;;;7.63;;
72319;SDS011;60269;52.502;16.732;2022-08-23T15:48:43;16.30;;;7.43;;
72319;SDS011;60269;52.502;16.732;2022-08-23T15:52:37;13.98;;;7.80;;
72319;SDS011;60269;52.502;16.732;2022-08-23T15:56:20;15.37;;;8.53;;
72319;SDS011;60269;52.502;16.732;2022-08-23T16:00:17;13.13;;;8.50;;
72319;SDS011;60269;52.502;16.732;2022-08-23T16:04:02;20.25;;;8.38;;
72319;SDS011;60269;52.502;16.732;2022-08-23T16:08:02;15.02;;;7.80;;
72319;SDS011;60269;52.502;16.732;2022-08-23T16:12:02;14.90;;;8.43;;
72319;SDS011;60269;52.502;16.732;2022-08-23T16:15:42;16.43;;;7.47;;
72319;SDS011;60269;52.502;16.732;2022-08-23T16:19:40;14.60;;;8.23;;
72319;SDS011;60269;52.502;16.732;2022-08-23T16:23:26;17.52;;;7.90;;
72319;SDS011;60269;52.502;16.732;2022-08-23T16:27:17;14.73;;;7.43;;
72319;SDS011;60269;52.502;16.732;2022-08-23T16:31:03;14.80;;;6.67;;
72319;SDS011;60269;52.502;16.732;2022-08-23T16:34:54;14.55;;;8.13;;
72319;SDS011;60269;52.502;16.732;2022-08-23T16:38:43;15.30;;;7.15;;
72319;SDS011;60269;52.502;16.732;2022-08-23T16:42:34;13.15;;;6.65;;
72319;SDS011;60269;52.502;16.732;2022-08-23T16:46:20;12.37;;;6.57;;
72319;SDS011;60269;52.502;16.732;2022-08-23T16:50:07;12.30;;;6.95;;
72319;SDS011;60269;52.502;16.732;2022-08-23T16:53:55;13.18;;;6.32;;
72319;SDS011;60269;52.502;16.732;2022-08-23T16:57:46;15.63;;;7.10;;
72319;SDS011;60269;52.502;16.732;2022-08-23T17:01:25;14.67;;;7.10;;
72319;SDS011;60269;52.502;16.732;2022-08-23T17:05:18;13.70;;;6.70;;
72319;SDS011;60269;52.502;16.732;2022-08-23T17:09:04;14.90;;;6.90;;
72319;SDS011;60269;52.502;16.732;2022-08-23T17:12:55;15.75;;;7.00;;
72319;SDS011;60269;52.502;16.732;2022-08-23T17:16:35;14.52;;;7.13;;
72319;SDS011;60269;52.502;16.732;2022-08-23T17:20:35;16.63;;;6.97;;
72319;SDS011;60269;52.502;16.732;2022-08-23T17:24:35;11.45;;;6.70;;
72319;SDS011;60269;52.502;16.732;2022-08-23T17:28:15;13.65;;;7.00;;
72319;SDS011;60269;52.502;16.732;2022-08-23T17:32:15;14.45;;;7.53;;
72319;SDS011;60269;52.502;16.732;2022-08-23T17:35:54;17.83;;;7.20;;
72319;SDS011;60269;52.502;16.732;2022-08-23T17:39:46;14.05;;;6.90;;
72319;SDS011;60269;52.502;16.732;2022-08-23T17:43:26;14.32;;;6.88;;
72319;SDS011;60269;52.502;16.732;2022-08-23T17:47:17;18.25;;;6.53;;
72319;SDS011;60269;52.502;16.732;2022-08-23T17:51:03;14.60;;;7.20;;
72319;SDS011;60269;52.502;16.732;2022-08-23T17:54:55;14.13;;;6.30;;
72319;SDS011;60269;52.502;16.732;2022-08-23T17:58:34;13.15;;;6.90;;
72319;SDS011;60269;52.502;16.732;2022-08-23T18:02:25;16.83;;;7.03;;
72319;SDS011;60269;52.502;16.732;2022-08-23T18:06:11;13.38;;;6.43;;
72319;SDS011;60269;52.502;16.732;2022-08-23T18:09:56;13.67;;;6.63;;
72319;SDS011;60269;52.502;16.732;2022-08-23T18:13:43;11.90;;;6.13;;
72319;SDS011;60269;52.502;16.732;2022-08-23T18:17:35;14.88;;;6.22;;
72319;SDS011;60269;52.502;16.732;2022-08-23T18:21:21;9.93;;;5.78;;
72319;SDS011;60269;52.502;16.732;2022-08-23T18:25:08;12.03;;;5.67;;
72319;SDS011;60269;52.502;16.732;2022-08-23T18:28:54;14.82;;;5.22;;
72319;SDS011;60269;52.502;16.732;2022-08-23T18:32:47;13.27;;;5.55;;
72319;SDS011;60269;52.502;16.732;2022-08-23T18:36:26;10.75;;;5.88;;
72319;SDS011;60269;52.502;16.732;2022-08-23T18:40:18;11.77;;;5.63;;
72319;SDS011;60269;52.502;16.732;2022-08-23T18:44:04;20.77;;;7.10;;
72319;SDS011;60269;52.502;16.732;2022-08-23T18:47:56;11.35;;;5.40;;
72319;SDS011;60269;52.502;16.732;2022-08-23T18:51:35;12.95;;;6.22;;
72319;SDS011;60269;52.502;16.732;2022-08-23T18:55:29;12.77;;;5.85;;
72319;SDS011;60269;52.502;16.732;2022-08-23T18:59:15;11.50;;;5.53;;
72319;SDS011;60269;52.502;16.732;2022-08-23T19:03:07;13.18;;;5.60;;
72319;SDS011;60269;52.502;16.732;2022-08-23T19:06:53;11.50;;;5.57;;
72319;SDS011;60269;52.502;16.732;2022-08-23T19:10:44;13.13;;;6.07;;
72319;SDS011;60269;52.502;16.732;2022-08-23T19:14:24;11.03;;;6.03;;
72319;SDS011;60269;52.502;16.732;2022-08-23T19:18:16;11.53;;;5.43;;
72319;SDS011;60269;52.502;16.732;2022-08-23T19:22:02;12.38;;;5.80;;
72319;SDS011;60269;52.502;16.732;2022-08-23T19:26:01;10.73;;;5.15;;
72319;SDS011;60269;52.502;16.732;2022-08-23T19:29:59;13.10;;;5.60;;
72319;SDS011;60269;52.502;16.732;2022-08-23T19:33:38;12.90;;;5.47;;
72319;SDS011;60269;52.502;16.732;2022-08-23T19:37:23;10.93;;;4.95;;
72319;SDS011;60269;52.502;16.732;2022-08-23T19:41:09;11.90;;;5.35;;
72319;SDS011;60269;52.502;16.732;2022-08-23T19:44:48;10.83;;;5.90;;
72319;SDS011;60269;52.502;16.732;2022-08-23T19:48:47;11.70;;;6.07;;
72319;SDS011;60269;52.502;16.732;2022-08-23T19:52:51;14.18;;;6.43;;
72319;SDS011;60269;52.502;16.732;2022-08-23T19:56:33;11.32;;;6.25;;
72319;SDS011;60269;52.502;16.732;2022-08-23T20:00:33;13.43;;;5.55;;
72319;SDS011;60269;52.502;16.732;2022-08-23T20:04:12;14.53;;;6.57;;
72319;SDS011;60269;52.502;16.732;2022-08-23T20:08:10;16.60;;;6.03;;
72319;SDS011;60269;52.502;16.732;2022-08-23T20:11:49;13.10;;;6.28;;
72319;SDS011;60269;52.502;16.732;2022-08-23T20:15:48;13.20;;;5.97;;
72319;SDS011;60269;52.502;16.732;2022-08-23T20:19:48;12.43;;;5.80;;
72319;SDS011;60269;52.502;16.732;2022-08-23T20:23:26;14.32;;;6.20;;
72319;SDS011;60269;52.502;16.732;2022-08-23T20:27:43;19.77;;;8.50;;
72319;SDS011;60269;52.502;16.732;2022-08-23T20:31:23;13.57;;;7.07;;
72319;SDS011;60269;52.502;16.732;2022-08-23T20:35:16;13.60;;;7.17;;
72319;SDS011;60269;52.502;16.732;2022-08-23T20:38:56;14.75;;;7.05;;
72319;SDS011;60269;52.502;16.732;2022-08-23T20:42:49;14.95;;;7.07;;
72319;SDS011;60269;52.502;16.732;2022-08-23T20:46:28;16.00;;;7.37;;
72319;SDS011;60269;52.502;16.732;2022-08-23T20:50:20;15.63;;;7.60;;
72319;SDS011;60269;52.502;16.732;2022-08-23T20:53:59;15.02;;;7.25;;
72319;SDS011;60269;52.502;16.732;2022-08-23T20:57:58;17.48;;;6.85;;
72319;SDS011;60269;52.502;16.732;2022-08-23T21:01:38;16.37;;;7.60;;
72319;SDS011;60269;52.502;16.732;2022-08-23T21:05:36;13.93;;;7.00;;
72319;SDS011;60269;52.502;16.732;2022-08-23T21:09:19;18.58;;;8.02;;
72319;SDS011;60269;52.502;16.732;2022-08-23T21:13:19;15.23;;;7.05;;
72319;SDS011;60269;52.502;16.732;2022-08-23T21:17:18;14.90;;;7.68;;
72319;SDS011;60269;52.502;16.732;2022-08-23T21:20:57;15.37;;;7.50;;
72319;SDS011;60269;52.502;16.732;2022-08-23T21:24:57;17.25;;;8.23;;
72319;SDS011;60269;52.502;16.732;2022-08-23T21:28:55;19.45;;;8.60;;
72319;SDS011;60269;52.502;16.732;2022-08-23T21:32:34;20.75;;;8.30;;
72319;SDS011;60269;52.502;16.732;2022-08-23T21:36:34;15.37;;;6.93;;
72319;SDS011;60269;52.502;16.732;2022-08-23T21:40:20;17.40;;;7.60;;
72319;SDS011;60269;52.502;16.732;2022-08-23T21:44:13;15.68;;;7.78;;
72319;SDS011;60269;52.502;16.732;2022-08-23T21:47:53;14.18;;;7.78;;
72319;SDS011;60269;52.502;16.732;2022-08-23T21:51:51;15.47;;;7.97;;
72319;SDS011;60269;52.502;16.732;2022-08-23T21:55:51;20.45;;;7.80;;
72319;SDS011;60269;52.502;16.732;2022-08-23T21:59:29;21.27;;;8.10;;
72319;SDS011;60269;52.502;16.732;2022-08-23T22:03:28;15.30;;;7.57;;
72319;SDS011;60269;52.502;16.732;2022-08-23T22:07:28;17.13;;;7.27;;
72319;SDS011;60269;52.502;16.732;2022-08-23T22:11:06;14.68;;;7.72;;
72319;SDS011;60269;52.502;16.732;2022-08-23T22:15:06;17.13;;;7.82;;
72319;SDS011;60269;52.502;16.732;2022-08-23T22:18:45;14.23;;;7.20;;
72319;SDS011;60269;52.502;16.732;2022-08-23T22:22:37;16.70;;;6.87;;
72319;SDS011;60269;52.502;16.732;2022-08-23T22:26:15;17.38;;;7.80;;
72319;SDS011;60269;52.502;16.732;2022-08-23T22:30:14;14.07;;;7.25;;
72319;SDS011;60269;52.502;16.732;2022-08-23T22:34:14;17.67;;;7.90;;
72319;SDS011;60269;52.502;16.732;2022-08-23T22:37:52;16.03;;;7.10;;
72319;SDS011;60269;52.502;16.732;2022-08-23T22:41:58;17.88;;;7.13;;
72319;SDS011;60269;52.502;16.732;2022-08-23T22:45:50;17.20;;;7.32;;
72319;SDS011;60269;52.502;16.732;2022-08-23T22:49:51;16.33;;;8.60;;
72319;SDS011;60269;52.502;16.732;2022-08-23T22:53:37;16.03;;;8.07;;
72319;SDS011;60269;52.502;16.732;2022-08-23T22:57:31;14.10;;;7.50;;
72319;SDS011;60269;52.502;16.732;2022-08-23T23:01:09;22.55;;;9.20;;
72319;SDS011;60269;52.502;16.732;2022-08-23T23:05:11;19.90;;;8.37;;
72319;SDS011;60269;52.502;16.732;2022-08-23T23:08:56;18.80;;;8.50;;
72319;SDS011;60269;52.502;16.732;2022-08-23T23:12:41;16.88;;;7.90;;
72319;SDS011;60269;52.502;16.732;2022-08-23T23:16:26;15.88;;;7.72;;
72319;SDS011;60269;52.502;16.732;2022-08-23T23:20:20;14.30;;;7.03;;
72319;SDS011;60269;52.502;16.732;2022-08-23T23:24:34;20.93;;;8.50;;
72319;SDS011;60269;52.502;16.732;2022-08-23T23:28:21;17.25;;;7.97;;
72319;SDS011;60269;52.502;16.732;2022-08-23T23:32:06;19.98;;;8.70;;
72319;SDS011;60269;52.502;16.732;2022-08-23T23:35:58;19.33;;;8.30;;
72319;SDS011;60269;52.502;16.732;2022-08-23T23:39:36;16.07;;;8.60;;
72319;SDS011;60269;52.502;16.732;2022-08-23T23:43:28;15.85;;;8.75;;
72319;SDS011;60269;52.502;16.732;2022-08-23T23:47:13;16.33;;;8.13;;
72319;SDS011;60269;52.502;16.732;2022-08-23T23:51:00;15.93;;;8.53;;
72319;SDS011;60269;52.502;16.732;2022-08-23T23:54:45;16.47;;;8.80;;
72319;SDS011;60269;52.502;16.732;2022-08-23T23:58:37;17.02;;;8.80;;
